Time;durP1;ratioP1;P1;durP2;ratioP2;P2;SDS_P1;SDS_P2;PMS_P1;PMS_P2;Temp;Humidity;BMP_temperature;BMP_pressure;BME280_temperature;BME280_humidity;BME280_pressure;Samples;Min_cycle;Max_cycle;Signal;HPM_P1;HPM_P2
2021/11/08 00:00:15;;;;;;;4.40;2.65;;;7.60;99.90;;;;;;5010474;28;20437;-81
2021/11/08 00:02:45;;;;;;;5.32;2.70;;;7.60;99.90;;;;;;5027006;28;20196;-79
2021/11/08 00:05:13;;;;;;;6.25;2.28;;;7.80;99.90;;;;;;5010061;28;20240;-80
2021/11/08 00:07:40;;;;;;;7.75;2.75;;;7.80;99.90;;;;;;5009622;28;20207;-80
2021/11/08 00:10:08;;;;;;;7.43;2.33;;;7.80;99.90;;;;;;5027581;28;20236;-79
2021/11/08 00:12:36;;;;;;;3.25;2.80;;;7.70;99.90;;;;;;5010363;28;20208;-81
2021/11/08 00:15:05;;;;;;;3.75;2.72;;;7.70;99.90;;;;;;5010162;28;20205;-79
2021/11/08 00:17:48;;;;;;;5.85;1.98;;;7.40;99.90;;;;;;5027498;28;20201;-80
2021/11/08 00:20:26;;;;;;;4.00;3.15;;;7.30;99.90;;;;;;5027636;28;20212;-79
2021/11/08 00:22:54;;;;;;;4.85;2.70;;;7.30;99.90;;;;;;5027345;28;20185;-80
2021/11/08 00:25:21;;;;;;;6.35;4.43;;;7.30;99.90;;;;;;5027281;28;20212;-81
2021/11/08 00:27:49;;;;;;;11.07;2.90;;;7.30;99.90;;;;;;5027419;28;20429;-81
2021/11/08 00:30:16;;;;;;;2.28;2.00;;;7.30;99.90;;;;;;5015168;28;20205;-79
2021/11/08 00:32:43;;;;;;;4.80;2.97;;;7.10;99.90;;;;;;5011308;28;20320;-82
2021/11/08 00:35:12;;;;;;;7.32;2.15;;;7.10;99.90;;;;;;5027726;28;20425;-81
2021/11/08 00:37:39;;;;;;;3.08;2.20;;;7.00;99.90;;;;;;5026792;28;20209;-82
2021/11/08 00:40:08;;;;;;;5.63;2.20;;;6.90;99.90;;;;;;5026540;28;20189;-81
2021/11/08 00:42:35;;;;;;;5.88;2.40;;;6.80;99.90;;;;;;5026426;28;20203;-81
2021/11/08 00:45:03;;;;;;;3.30;1.98;;;6.70;99.90;;;;;;5026316;28;20215;-80
2021/11/08 00:47:30;;;;;;;4.82;2.20;;;6.70;99.90;;;;;;5026206;28;20203;-82
2021/11/08 00:50:00;;;;;;;4.82;1.73;;;6.60;99.90;;;;;;5027027;28;20255;-81
2021/11/08 00:52:27;;;;;;;2.90;2.05;;;6.50;99.90;;;;;;5009258;28;20263;-82
2021/11/08 00:54:55;;;;;;;7.35;2.50;;;6.60;99.90;;;;;;5019484;28;20196;-81
2021/11/08 00:57:25;;;;;;;4.47;2.50;;;6.50;99.90;;;;;;4990163;28;20193;-81
2021/11/08 00:59:54;;;;;;;2.85;2.25;;;6.60;99.90;;;;;;5007137;28;20197;-81
2021/11/08 01:02:25;;;;;;;5.13;2.58;;;6.70;99.90;;;;;;5019037;28;20530;-81
2021/11/08 01:04:54;;;;;;;3.88;1.98;;;6.60;99.90;;;;;;5026351;28;20383;-81
2021/11/08 01:07:21;;;;;;;2.45;2.20;;;6.70;99.90;;;;;;5014590;28;20204;-81
2021/11/08 01:09:48;;;;;;;3.25;1.45;;;6.70;99.90;;;;;;5023749;28;20442;-81
2021/11/08 01:12:16;;;;;;;4.63;2.00;;;6.70;99.90;;;;;;5026085;28;20212;-83
2021/11/08 01:14:44;;;;;;;3.17;2.05;;;6.60;99.90;;;;;;5009126;28;20380;-83
2021/11/08 01:17:11;;;;;;;7.20;2.20;;;6.70;99.90;;;;;;5009041;28;20199;-82
2021/11/08 01:19:40;;;;;;;7.07;2.20;;;6.80;99.90;;;;;;5026061;28;20494;-81
2021/11/08 01:22:18;;;;;;;3.22;2.00;;;7.10;99.90;;;;;;5008577;28;20227;-81
2021/11/08 01:24:55;;;;;;;2.33;1.80;;;7.20;99.90;;;;;;5008476;28;20243;-80
2021/11/08 01:27:49;;;;;;;8.18;1.88;;;7.30;99.90;;;;;;5025442;28;20242;-80
2021/11/08 01:30:21;;;;;;;2.60;1.77;;;7.30;99.90;;;;;;5025499;28;20199;-81
2021/11/08 01:38:35;;;;;;;2.05;1.83;;;7.70;99.90;;;;;;5012161;28;20213;-80
2021/11/08 01:41:04;;;;;;;2.05;1.30;;;7.90;99.90;;;;;;5025150;28;20217;-81
2021/11/08 01:43:32;;;;;;;2.35;1.67;;;7.80;99.90;;;;;;5025100;28;20199;-80
2021/11/08 01:46:01;;;;;;;7.22;4.03;;;7.80;99.90;;;;;;5007840;28;20232;-78
2021/11/08 01:48:28;;;;;;;5.50;3.15;;;7.80;99.90;;;;;;5025497;28;20232;-80
2021/11/08 01:50:56;;;;;;;7.25;2.25;;;7.80;99.90;;;;;;5025075;28;20240;-80
2021/11/08 01:53:23;;;;;;;3.22;1.58;;;7.90;99.90;;;;;;5024592;28;20193;-82
2021/11/08 01:55:52;;;;;;;2.55;1.63;;;7.80;99.90;;;;;;5024340;28;20251;-81
2021/11/08 01:58:21;;;;;;;2.60;2.13;;;8.00;99.90;;;;;;5024572;28;20510;-82
2021/11/08 02:00:49;;;;;;;4.05;1.77;;;8.00;99.90;;;;;;5024004;28;20221;-82
2021/11/08 02:03:18;;;;;;;2.05;1.48;;;7.90;99.90;;;;;;5007359;28;20243;-81
2021/11/08 02:05:47;;;;;;;2.10;1.40;;;7.90;99.90;;;;;;5024388;28;20239;-81
2021/11/08 02:08:16;;;;;;;3.80;1.30;;;8.00;99.90;;;;;;5023470;28;20422;-82
2021/11/08 02:10:44;;;;;;;4.25;2.05;;;8.00;99.90;;;;;;5024586;28;20490;-82
2021/11/08 02:13:11;;;;;;;3.33;2.30;;;8.10;99.90;;;;;;5024625;28;20201;-79
2021/11/08 02:15:39;;;;;;;3.20;1.80;;;8.10;99.90;;;;;;5007485;28;20251;-81
2021/11/08 02:18:08;;;;;;;3.00;2.25;;;8.20;99.90;;;;;;5007133;28;20205;-81
2021/11/08 02:20:37;;;;;;;8.50;2.45;;;8.20;99.90;;;;;;5006998;28;20536;-80
2021/11/08 02:23:06;;;;;;;5.07;1.80;;;8.30;99.90;;;;;;5024112;28;20236;-81
2021/11/08 02:25:37;;;;;;;3.25;1.65;;;8.20;99.90;;;;;;5007407;28;20202;-82
2021/11/08 02:28:07;;;;;;;7.43;1.98;;;8.10;99.90;;;;;;5012779;28;20459;-81
2021/11/08 02:30:36;;;;;;;1.75;1.63;;;8.20;99.90;;;;;;5024184;28;20502;-80
2021/11/08 02:33:07;;;;;;;3.47;2.22;;;8.30;99.90;;;;;;5024278;28;20220;-81
2021/11/08 02:35:36;;;;;;;2.40;1.55;;;8.20;99.90;;;;;;5006981;28;20189;-81
2021/11/08 02:38:07;;;;;;;5.97;1.73;;;8.20;99.90;;;;;;5024074;28;20213;-80
2021/11/08 02:40:35;;;;;;;2.58;1.85;;;8.20;99.90;;;;;;5024142;28;20197;-79
2021/11/08 02:43:04;;;;;;;4.32;1.70;;;8.20;99.90;;;;;;5024216;28;20410;-80
2021/11/08 02:45:32;;;;;;;4.80;2.08;;;8.30;99.90;;;;;;5023849;28;20432;-81
2021/11/08 02:48:00;;;;;;;2.00;1.80;;;8.30;99.90;;;;;;5016169;28;20484;-78
2021/11/08 02:50:31;;;;;;;5.22;2.13;;;8.30;99.90;;;;;;5003139;28;20201;-79
2021/11/08 02:53:00;;;;;;;2.30;1.70;;;8.30;99.90;;;;;;5002058;28;20553;-81
2021/11/08 02:55:29;;;;;;;2.65;2.00;;;8.30;99.90;;;;;;5016200;28;20197;-81
2021/11/08 02:57:57;;;;;;;3.72;2.25;;;8.30;99.90;;;;;;5023882;28;20562;-81
2021/11/08 03:00:28;;;;;;;3.80;1.60;;;8.20;99.90;;;;;;5023773;28;20263;-81
2021/11/08 03:02:57;;;;;;;3.50;2.40;;;8.30;99.90;;;;;;5023599;28;20197;-83
2021/11/08 03:05:32;;;;;;;1.92;1.17;;;8.30;99.90;;;;;;5024002;28;20240;-81
2021/11/08 03:08:03;;;;;;;12.40;1.75;;;8.30;99.90;;;;;;5006743;28;20184;-81
2021/11/08 03:10:33;;;;;;;1.77;1.55;;;8.40;99.90;;;;;;5024031;28;20247;-82
2021/11/08 03:13:08;;;;;;;5.53;1.73;;;8.40;99.90;;;;;;5023865;28;20247;-82
2021/11/08 03:18:06;;;;;;;2.85;1.98;;;8.50;99.90;;;;;;5023300;28;20239;-80
2021/11/08 03:20:34;;;;;;;5.63;1.63;;;8.50;99.90;;;;;;5006076;28;20195;-79
2021/11/08 03:23:06;;;;;;;4.13;1.70;;;8.50;99.90;;;;;;5023594;28;20207;-79
2021/11/08 03:25:48;;;;;;;3.28;2.03;;;8.50;99.90;;;;;;5029197;28;20193;-79
2021/11/08 03:28:18;;;;;;;3.78;2.20;;;8.50;99.90;;;;;;5025224;28;20201;-79
2021/11/08 03:30:48;;;;;;;2.60;1.50;;;8.40;99.90;;;;;;5007072;28;20259;-78
2021/11/08 03:33:17;;;;;;;3.10;2.00;;;8.50;99.90;;;;;;5024866;28;20417;-78
2021/11/08 03:35:45;;;;;;;3.60;2.13;;;8.50;99.90;;;;;;5013576;28;20441;-79
2021/11/08 03:38:15;;;;;;;4.65;2.35;;;8.50;99.90;;;;;;4986731;28;20213;-76
2021/11/08 03:40:45;;;;;;;3.35;1.60;;;8.50;99.90;;;;;;5013442;28;20409;-80
2021/11/08 03:43:20;;;;;;;3.42;1.58;;;8.50;99.90;;;;;;5023773;28;20426;-79
2021/11/08 03:45:49;;;;;;;4.75;2.22;;;8.60;99.90;;;;;;5023556;28;20470;-80
2021/11/08 03:48:17;;;;;;;3.05;1.90;;;8.60;99.90;;;;;;5023593;28;20235;-80
2021/11/08 03:50:45;;;;;;;5.50;2.10;;;8.60;99.90;;;;;;5023176;28;20239;-80
2021/11/08 03:53:12;;;;;;;4.75;1.88;;;8.60;99.90;;;;;;5006214;28;20204;-79
2021/11/08 03:55:40;;;;;;;5.30;1.58;;;8.70;99.90;;;;;;5006677;28;20366;-79
2021/11/08 03:58:07;;;;;;;3.97;1.83;;;8.60;99.90;;;;;;5023434;28;20243;-79
2021/11/08 04:00:35;;;;;;;3.85;2.40;;;8.60;99.90;;;;;;5005842;28;20197;-80
2021/11/08 04:03:04;;;;;;;4.30;2.13;;;8.70;99.90;;;;;;5023328;28;20221;-77
2021/11/08 04:05:35;;;;;;;2.78;2.17;;;8.80;99.90;;;;;;5023916;28;20201;-79
2021/11/08 04:08:11;;;;;;;2.55;1.92;;;8.70;99.90;;;;;;5006464;28;20200;-80
2021/11/08 04:10:41;;;;;;;3.53;2.05;;;8.80;99.90;;;;;;4991389;28;20189;-80
2021/11/08 04:13:09;;;;;;;7.07;2.17;;;9.00;99.90;;;;;;5011236;28;20213;-79
2021/11/08 04:15:40;;;;;;;5.80;1.80;;;9.10;99.90;;;;;;5005863;28;20208;-79
2021/11/08 04:18:14;;;;;;;4.97;1.77;;;9.10;99.90;;;;;;5006199;28;20375;-78
2021/11/08 04:20:43;;;;;;;3.17;1.65;;;9.00;99.90;;;;;;5023574;28;20207;-77
2021/11/08 04:23:11;;;;;;;5.57;1.77;;;9.00;99.90;;;;;;5023412;28;20434;-79
2021/11/08 04:25:39;;;;;;;5.07;1.92;;;9.00;99.90;;;;;;5023406;28;20207;-81
2021/11/08 04:28:07;;;;;;;2.22;1.52;;;8.90;99.90;;;;;;5005683;28;20251;-80
2021/11/08 04:30:38;;;;;;;2.70;1.45;;;8.90;99.90;;;;;;5024197;28;20209;-79
2021/11/08 04:36:38;;;;;;;3.88;2.35;;;8.80;99.90;;;;;;5009080;28;20201;-79
2021/11/08 04:41:45;;;;;;;6.70;1.85;;;8.70;99.90;;;;;;5027138;28;20208;-80
2021/11/08 05:22:16;;;;;;;3.03;1.20;;;8.50;99.90;;;;;;5025946;28;20205;-83
2021/11/08 05:25:29;;;;;;;2.45;1.75;;;8.50;99.90;;;;;;5026096;28;20258;-80
2021/11/08 05:30:24;;;;;;;8.35;2.60;;;8.50;99.90;;;;;;5013116;28;20251;-79
2021/11/08 05:32:51;;;;;;;4.10;1.85;;;8.50;99.90;;;;;;5018191;28;20399;-80
2021/11/08 05:35:20;;;;;;;17.25;4.13;;;8.50;99.90;;;;;;5025129;28;20251;-78
2021/11/08 05:37:47;;;;;;;5.43;1.60;;;8.40;99.90;;;;;;5025372;28;20208;-78
2021/11/08 05:40:22;;;;;;;6.88;2.88;;;8.30;99.90;;;;;;5007890;28;20201;-80
2021/11/08 05:42:49;;;;;;;6.05;1.98;;;8.30;99.90;;;;;;5023867;28;20221;-80
2021/11/08 05:45:18;;;;;;;8.32;1.77;;;8.40;99.90;;;;;;5024917;28;20205;-79
2021/11/08 05:47:46;;;;;;;6.25;2.00;;;8.50;99.90;;;;;;5025102;28;20208;-79
2021/11/08 05:50:16;;;;;;;4.90;1.67;;;8.60;99.90;;;;;;5024120;28;20197;-79
2021/11/08 05:52:47;;;;;;;10.90;2.38;;;8.50;99.90;;;;;;5024395;28;20272;-81
2021/11/08 05:55:14;;;;;;;3.78;1.80;;;8.50;99.90;;;;;;5006597;28;20240;-76
2021/11/08 06:01:05;;;;;;;2.47;1.90;;;8.60;99.90;;;;;;5023719;28;20223;-80
2021/11/08 06:50:20;;;;;;;4.55;2.70;;;7.90;99.90;;;;;;5022719;28;20188;-81
2021/11/08 06:52:50;;;;;;;6.63;3.05;;;8.00;99.90;;;;;;5022127;28;20211;-81
2021/11/08 06:55:20;;;;;;;9.98;4.85;;;8.00;99.90;;;;;;5022157;28;20200;-81
2021/11/08 06:57:51;;;;;;;4.63;2.55;;;8.10;99.90;;;;;;5005747;28;20236;-79
2021/11/08 07:00:21;;;;;;;2.65;1.90;;;8.10;99.90;;;;;;5022883;28;20189;-81
2021/11/08 07:02:49;;;;;;;4.05;2.30;;;8.20;99.90;;;;;;4993295;28;20209;-80
2021/11/08 07:05:16;;;;;;;2.95;2.30;;;8.30;99.90;;;;;;5024128;28;20545;-81
2021/11/08 07:07:43;;;;;;;5.13;3.28;;;8.40;99.90;;;;;;5023976;28;20224;-78
2021/11/08 07:10:11;;;;;;;7.30;2.45;;;8.50;99.90;;;;;;5023564;28;20481;-80
2021/11/08 07:12:39;;;;;;;8.02;2.42;;;8.50;99.90;;;;;;5024043;28;20207;-79
2021/11/08 07:15:07;;;;;;;10.52;2.95;;;8.50;99.90;;;;;;5023937;28;20208;-78
2021/11/08 07:17:35;;;;;;;4.40;2.58;;;8.60;99.90;;;;;;5024145;28;20192;-78
2021/11/08 07:20:03;;;;;;;9.20;1.88;;;8.80;99.90;;;;;;5024426;28;20255;-81
2021/11/08 07:22:32;;;;;;;3.67;1.75;;;8.90;99.90;;;;;;5023551;28;20533;-79
2021/11/08 07:25:00;;;;;;;4.80;2.30;;;8.80;99.90;;;;;;5024060;28;20197;-80
2021/11/08 07:27:28;;;;;;;5.68;2.17;;;8.90;99.90;;;;;;5006554;28;20263;-84
2021/11/08 07:29:55;;;;;;;12.55;2.58;;;9.00;99.90;;;;;;5023729;28;20201;-83
2021/11/08 07:32:24;;;;;;;9.65;2.10;;;9.20;99.90;;;;;;5006473;28;20201;-83
2021/11/08 07:34:53;;;;;;;5.60;2.03;;;9.30;99.90;;;;;;5023345;28;20491;-82
2021/11/08 07:37:21;;;;;;;4.53;2.75;;;9.30;99.90;;;;;;4997629;28;20213;-82
2021/11/08 07:39:49;;;;;;;8.35;4.32;;;9.30;99.90;;;;;;5022809;28;20212;-81
2021/11/08 07:42:17;;;;;;;6.63;2.42;;;9.30;99.90;;;;;;5021692;28;20247;-81
2021/11/08 07:44:45;;;;;;;4.72;1.75;;;9.30;99.90;;;;;;5021496;28;20208;-81
2021/11/08 07:47:13;;;;;;;17.38;1.67;;;9.30;99.90;;;;;;5022194;28;20261;-82
2021/11/08 07:49:41;;;;;;;6.25;2.10;;;9.20;99.90;;;;;;5003989;28;20207;-82
2021/11/08 07:52:09;;;;;;;2.20;1.83;;;9.30;99.90;;;;;;5004077;28;20235;-82
2021/11/08 07:54:38;;;;;;;1.60;1.50;;;9.40;99.90;;;;;;5021808;28;20206;-81
2021/11/08 07:57:05;;;;;;;2.97;1.80;;;9.30;99.90;;;;;;5012953;28;20205;-80
2021/11/08 07:59:33;;;;;;;2.85;1.58;;;9.30;99.90;;;;;;5021637;28;20240;-82
2021/11/08 08:02:02;;;;;;;2.70;1.48;;;9.40;99.90;;;;;;5003440;28;20197;-82
2021/11/08 08:04:30;;;;;;;10.65;2.38;;;9.40;99.90;;;;;;5015123;28;20219;-81
2021/11/08 08:06:58;;;;;;;4.68;1.92;;;9.40;99.90;;;;;;5025969;28;20401;-85
2021/11/08 08:09:25;;;;;;;6.63;2.08;;;9.40;99.90;;;;;;5025835;28;20193;-81
2021/11/08 08:11:52;;;;;;;5.07;1.85;;;9.40;99.90;;;;;;5026471;28;20223;-83
2021/11/08 08:14:20;;;;;;;5.65;2.35;;;9.40;99.90;;;;;;5017978;28;20205;-80
2021/11/08 08:16:48;;;;;;;3.58;1.85;;;9.40;99.90;;;;;;5025802;28;20211;-81
2021/11/08 08:19:16;;;;;;;4.93;2.33;;;9.30;99.90;;;;;;5025556;28;20197;-80
2021/11/08 08:21:44;;;;;;;4.88;1.92;;;9.50;99.90;;;;;;5025814;28;20265;-82
2021/11/08 08:24:11;;;;;;;4.40;2.03;;;9.60;99.90;;;;;;5025922;28;20230;-81
2021/11/08 08:26:41;;;;;;;4.93;1.60;;;9.70;99.90;;;;;;5020291;28;20495;-81
2021/11/08 08:29:10;;;;;;;5.53;2.40;;;9.70;99.90;;;;;;5004050;28;20206;-83
2021/11/08 08:31:41;;;;;;;4.00;2.10;;;9.80;99.90;;;;;;5029364;28;20202;-82
2021/11/08 08:34:10;;;;;;;3.55;2.95;;;9.90;99.90;;;;;;5025491;28;20205;-82
2021/11/08 08:36:39;;;;;;;4.00;1.70;;;9.90;99.90;;;;;;5024280;28;20260;-80
2021/11/08 08:39:08;;;;;;;3.00;1.85;;;10.00;99.90;;;;;;5017214;28;20201;-82
2021/11/08 08:41:37;;;;;;;3.83;2.45;;;9.90;99.90;;;;;;5002492;28;20313;-80
2021/11/08 08:44:07;;;;;;;1.92;1.83;;;10.00;99.90;;;;;;5006434;28;20225;-81
2021/11/08 08:46:35;;;;;;;6.78;2.55;;;10.00;99.90;;;;;;5026322;28;20236;-80
2021/11/08 08:49:03;;;;;;;2.42;2.22;;;9.80;99.90;;;;;;5008146;28;20256;-83
2021/11/08 08:51:30;;;;;;;1.95;1.70;;;9.90;99.90;;;;;;5025518;28;20229;-81
2021/11/08 08:54:02;;;;;;;3.33;1.83;;;10.10;99.90;;;;;;5007834;28;20202;-85
2021/11/08 08:56:30;;;;;;;5.47;3.25;;;10.20;99.90;;;;;;5024958;28;20268;-82
2021/11/08 08:58:57;;;;;;;3.92;1.88;;;10.20;99.90;;;;;;5008671;28;20233;-82
2021/11/08 09:01:26;;;;;;;4.75;2.50;;;10.50;99.90;;;;;;5025728;28;20224;-82
2021/11/08 09:03:57;;;;;;;3.15;2.15;;;10.60;99.90;;;;;;5025444;28;20227;-81
2021/11/08 09:06:25;;;;;;;4.07;2.03;;;10.50;99.90;;;;;;5018520;28;20233;-86
2021/11/08 09:08:53;;;;;;;1.60;1.50;;;10.20;99.90;;;;;;5024269;28;20204;-81
2021/11/08 09:11:23;;;;;;;2.53;1.98;;;10.00;99.90;;;;;;5025190;28;20230;-83
2021/11/08 09:13:52;;;;;;;4.13;1.63;;;10.10;99.90;;;;;;5025710;28;20277;-82
2021/11/08 09:16:19;;;;;;;1.50;1.38;;;10.20;99.90;;;;;;5008417;28;20206;-83
2021/11/08 09:18:51;;;;;;;4.90;2.55;;;10.20;99.90;;;;;;5025621;28;20214;-83
2021/11/08 09:21:21;;;;;;;2.90;2.00;;;10.20;99.90;;;;;;5017552;28;20201;-82
2021/11/08 09:23:50;;;;;;;1.70;1.60;;;10.20;99.90;;;;;;5026709;28;20256;-83
2021/11/08 09:26:18;;;;;;;1.90;1.50;;;10.30;99.90;;;;;;5011201;28;20547;-80
2021/11/08 09:28:46;;;;;;;2.45;1.88;;;10.30;99.90;;;;;;5021286;28;20464;-82
2021/11/08 09:31:14;;;;;;;2.50;1.85;;;10.30;99.90;;;;;;5024623;28;20255;-81
2021/11/08 09:33:42;;;;;;;2.78;1.20;;;10.20;99.90;;;;;;5025447;28;20201;-82
2021/11/08 09:36:12;;;;;;;4.43;2.20;;;10.10;99.90;;;;;;5025102;28;20203;-81
2021/11/08 09:38:48;;;;;;;3.03;2.08;;;10.00;99.90;;;;;;5023991;28;20224;-83
2021/11/08 09:41:18;;;;;;;3.00;2.13;;;9.90;99.90;;;;;;5025071;28;20276;-83
2021/11/08 09:43:46;;;;;;;4.07;2.20;;;9.90;99.90;;;;;;5012928;28;20221;-82
2021/11/08 09:46:14;;;;;;;2.25;2.10;;;10.00;99.90;;;;;;5017844;28;20221;-84
2021/11/08 09:48:42;;;;;;;4.43;2.40;;;10.10;99.90;;;;;;5024220;28;20224;-85
2021/11/08 09:51:13;;;;;;;1.67;1.50;;;10.10;99.90;;;;;;5024132;28;20214;-82
2021/11/08 09:53:40;;;;;;;1.83;1.55;;;10.00;99.90;;;;;;5023741;28;20223;-83
2021/11/08 09:56:09;;;;;;;1.73;1.58;;;10.10;99.90;;;;;;5006434;28;20210;-81
2021/11/08 09:58:57;;;;;;;3.75;2.30;;;10.10;99.90;;;;;;5023283;28;20213;-85
2021/11/08 10:01:40;;;;;;;2.30;2.10;;;10.20;99.90;;;;;;5017673;28;20245;-84
2021/11/08 10:04:10;;;;;;;2.90;2.60;;;10.20;99.90;;;;;;5023948;28;20221;-82
2021/11/08 10:06:39;;;;;;;2.40;2.03;;;10.20;99.90;;;;;;5016138;28;20215;-86
2021/11/08 10:09:10;;;;;;;2.20;1.70;;;10.40;99.90;;;;;;5023273;28;20204;-86
2021/11/08 10:11:40;;;;;;;2.97;1.60;;;10.50;99.90;;;;;;5023395;28;20202;-84
2021/11/08 10:14:08;;;;;;;2.00;1.75;;;10.50;99.90;;;;;;5021583;28;20210;-83
2021/11/08 10:16:38;;;;;;;1.42;1.33;;;10.50;99.90;;;;;;5024114;28;20222;-84
2021/11/08 10:19:10;;;;;;;1.70;1.60;;;10.60;99.90;;;;;;5005355;28;20256;-82
2021/11/08 10:21:46;;;;;;;1.75;1.65;;;10.60;99.90;;;;;;5017210;28;20199;-82
2021/11/08 10:24:18;;;;;;;3.08;1.10;;;10.70;99.90;;;;;;5021821;28;20444;-83
2021/11/08 10:26:46;;;;;;;1.70;1.38;;;10.70;99.90;;;;;;5015948;28;20493;-83
2021/11/08 10:29:17;;;;;;;1.58;1.48;;;10.60;99.90;;;;;;5012496;28;20472;-85
2021/11/08 10:32:07;;;;;;;1.35;1.25;;;10.60;99.90;;;;;;5012157;28;20190;-83
2021/11/08 10:34:44;;;;;;;1.88;1.75;;;10.60;99.90;;;;;;5017817;28;20213;-83
2021/11/08 10:37:11;;;;;;;1.50;1.40;;;10.60;99.90;;;;;;5012238;28;20274;-81
2021/11/08 10:39:40;;;;;;;1.77;1.20;;;10.70;99.90;;;;;;5001775;28;20229;-83
2021/11/08 10:42:21;;;;;;;2.67;1.55;;;10.60;99.90;;;;;;4997915;28;20244;-83
2021/11/08 10:44:48;;;;;;;6.70;2.40;;;10.50;99.90;;;;;;5014637;28;20197;-83
2021/11/08 10:47:20;;;;;;;2.30;1.75;;;10.60;99.90;;;;;;5015950;28;20202;-82
2021/11/08 10:49:49;;;;;;;1.73;1.63;;;10.60;99.90;;;;;;5020060;28;20412;-83
2021/11/08 10:52:18;;;;;;;2.20;2.10;;;10.60;99.90;;;;;;5016138;28;20415;-83
2021/11/08 10:54:53;;;;;;;2.50;2.28;;;10.60;99.90;;;;;;5013413;28;20242;-84
2021/11/08 10:57:24;;;;;;;2.28;1.70;;;10.60;99.90;;;;;;5020504;28;20208;-83
2021/11/08 10:59:55;;;;;;;6.05;3.85;;;10.60;99.90;;;;;;5023206;28;20256;-82
2021/11/08 11:02:25;;;;;;;3.28;2.28;;;10.50;99.90;;;;;;5020112;28;20193;-82
2021/11/08 11:04:58;;;;;;;1.77;1.60;;;10.40;99.90;;;;;;5021963;28;20233;-82
2021/11/08 11:07:26;;;;;;;4.47;2.35;;;10.40;99.90;;;;;;5022052;28;20201;-83
2021/11/08 11:10:10;;;;;;;7.18;2.30;;;10.40;99.90;;;;;;4997352;28;20333;-81
2021/11/08 11:12:46;;;;;;;2.67;1.90;;;10.20;99.90;;;;;;5021465;28;20238;-81
2021/11/08 11:15:17;;;;;;;2.83;2.55;;;10.30;99.90;;;;;;5004729;28;20199;-83
2021/11/08 11:17:55;;;;;;;2.80;2.40;;;10.30;99.90;;;;;;5004785;28;20519;-83
2021/11/08 11:20:29;;;;;;;3.00;2.13;;;10.20;99.90;;;;;;5016762;28;20198;-83
2021/11/08 11:23:15;;;;;;;2.42;2.20;;;10.20;99.90;;;;;;5012445;28;20267;-82
2021/11/08 11:25:53;;;;;;;3.72;3.28;;;10.20;99.90;;;;;;5022556;28;20247;-83
2021/11/08 11:28:36;;;;;;;2.78;2.30;;;10.40;99.90;;;;;;4995494;28;20209;-84
2021/11/08 11:31:19;;;;;;;3.72;2.38;;;10.60;99.90;;;;;;4998770;28;20198;-83
2021/11/08 11:33:49;;;;;;;2.78;2.05;;;10.60;99.90;;;;;;5006230;28;20201;-83
2021/11/08 11:36:18;;;;;;;3.13;2.40;;;10.60;99.90;;;;;;5022595;28;20445;-82
2021/11/08 11:38:51;;;;;;;3.33;1.80;;;10.50;99.90;;;;;;5019704;28;20484;-83
2021/11/08 11:41:29;;;;;;;6.97;2.20;;;10.40;99.90;;;;;;5001976;28;20231;-84
2021/11/08 11:44:04;;;;;;;2.50;2.25;;;10.40;99.90;;;;;;5026260;28;20206;-81
2021/11/08 11:46:35;;;;;;;2.17;1.80;;;10.20;99.90;;;;;;5010042;28;20193;-83
2021/11/08 11:49:05;;;;;;;3.00;1.70;;;10.10;99.90;;;;;;5026572;28;20283;-83
2021/11/08 11:51:40;;;;;;;4.20;2.20;;;10.10;99.90;;;;;;5026680;28;20429;-82
2021/11/08 11:54:09;;;;;;;2.15;2.05;;;10.00;99.90;;;;;;5009972;28;20209;-83
2021/11/08 11:56:38;;;;;;;3.03;2.25;;;10.20;99.90;;;;;;5026076;28;20275;-82
2021/11/08 11:59:06;;;;;;;3.40;3.10;;;10.20;99.90;;;;;;5025829;28;20209;-83
2021/11/08 12:01:35;;;;;;;3.53;2.80;;;10.10;99.90;;;;;;5025748;28;20212;-84
2021/11/08 12:04:22;;;;;;;3.50;2.97;;;10.10;99.90;;;;;;5017046;28;20394;-86
2021/11/08 12:06:54;;;;;;;3.33;2.33;;;10.10;99.90;;;;;;5017964;28;20206;-82
2021/11/08 12:09:21;;;;;;;4.35;2.78;;;10.10;99.90;;;;;;5020172;28;20205;-83
2021/11/08 12:11:53;;;;;;;4.40;3.25;;;10.10;99.90;;;;;;5014865;28;20240;-83
2021/11/08 12:14:23;;;;;;;3.60;3.03;;;10.20;99.90;;;;;;5025812;28;20397;-83
2021/11/08 12:16:58;;;;;;;4.35;3.05;;;10.30;99.90;;;;;;5024794;28;20218;-83
2021/11/08 12:19:29;;;;;;;4.90;3.70;;;10.30;99.90;;;;;;5025402;28;20209;-83
2021/11/08 12:22:09;;;;;;;3.70;3.33;;;10.40;99.90;;;;;;5025460;28;20205;-83
2021/11/08 12:24:37;;;;;;;3.13;2.83;;;10.50;99.90;;;;;;5021181;28;20532;-81
2021/11/08 12:27:13;;;;;;;4.03;3.60;;;10.50;99.90;;;;;;5022919;28;20269;-83
2021/11/08 12:29:50;;;;;;;5.88;4.13;;;10.40;99.90;;;;;;5022564;28;20208;-82
2021/11/08 12:32:17;;;;;;;4.95;3.60;;;10.50;99.90;;;;;;5016368;28;20199;-82
2021/11/08 12:34:50;;;;;;;3.38;3.00;;;10.60;99.90;;;;;;5007356;28;20272;-83
2021/11/08 12:37:20;;;;;;;5.05;3.10;;;10.70;99.90;;;;;;5025253;28;20218;-84
2021/11/08 12:40:00;;;;;;;3.13;2.92;;;10.70;99.90;;;;;;5006524;28;20202;-86
2021/11/08 12:42:57;;;;;;;4.75;3.40;;;10.60;99.90;;;;;;5010330;28;20197;-82
2021/11/08 12:45:29;;;;;;;2.80;2.60;;;10.50;99.90;;;;;;5006916;28;20198;-85
2021/11/08 12:48:04;;;;;;;3.42;3.13;;;10.40;99.90;;;;;;5008320;28;20247;-83
2021/11/08 12:50:42;;;;;;;2.95;2.75;;;10.20;99.90;;;;;;5024998;28;20202;-84
2021/11/08 12:53:26;;;;;;;3.90;2.97;;;10.10;99.90;;;;;;5007181;28;20202;-85
2021/11/08 12:55:59;;;;;;;4.82;3.05;;;10.10;99.90;;;;;;5025039;28;20193;-83
2021/11/08 12:58:36;;;;;;;4.85;4.32;;;10.00;99.90;;;;;;5018301;28;20207;-84
2021/11/08 13:01:07;;;;;;;3.47;3.28;;;10.00;99.90;;;;;;5017058;28;20394;-81
2021/11/08 13:03:40;;;;;;;2.97;2.67;;;10.10;99.90;;;;;;5024764;28;20245;-82
2021/11/08 13:06:31;;;;;;;3.95;3.55;;;9.90;99.90;;;;;;5023196;28;20252;-85
2021/11/08 13:09:10;;;;;;;6.05;3.85;;;9.80;99.90;;;;;;5004165;28;20509;-84
2021/11/08 13:11:40;;;;;;;4.88;4.00;;;9.90;99.90;;;;;;5012860;28;20211;-83
2021/11/08 13:14:09;;;;;;;3.92;3.55;;;9.80;99.90;;;;;;5023124;28;20200;-84
2021/11/08 13:16:41;;;;;;;4.38;3.60;;;9.80;99.90;;;;;;5024594;28;20228;-82
2021/11/08 13:19:12;;;;;;;4.40;4.00;;;9.80;99.90;;;;;;5006705;28;20210;-82
2021/11/08 13:21:41;;;;;;;4.15;3.75;;;9.80;99.90;;;;;;5018407;28;20201;-85
2021/11/08 13:24:10;;;;;;;4.80;4.10;;;9.80;99.90;;;;;;5023538;28;20312;-84
2021/11/08 13:26:43;;;;;;;4.30;3.70;;;9.80;99.90;;;;;;5007094;28;20196;-83
2021/11/08 13:29:16;;;;;;;4.60;3.55;;;9.80;99.90;;;;;;5024309;28;20526;-81
2021/11/08 13:31:44;;;;;;;3.30;3.05;;;9.70;99.90;;;;;;5024317;28;20315;-83
2021/11/08 13:34:13;;;;;;;3.67;3.38;;;9.70;99.90;;;;;;5024567;28;20201;-81
2021/11/08 13:36:43;;;;;;;5.60;3.90;;;9.70;99.90;;;;;;5023505;28;20220;-86
2021/11/08 13:39:11;;;;;;;6.03;4.10;;;9.60;99.90;;;;;;5025035;28;20399;-83
2021/11/08 13:41:39;;;;;;;7.53;6.85;;;9.50;99.90;;;;;;5023784;28;20233;-82
2021/11/08 13:44:11;;;;;;;7.00;5.72;;;9.50;99.90;;;;;;5006173;28;20238;-84
2021/11/08 13:46:42;;;;;;;6.18;5.30;;;9.50;99.90;;;;;;5024672;28;20197;-82
2021/11/08 13:49:16;;;;;;;6.57;4.18;;;9.60;99.90;;;;;;5018505;28;20225;-85
2021/11/08 13:51:57;;;;;;;6.22;5.38;;;9.70;99.90;;;;;;5021234;28;20209;-86
2021/11/08 13:54:28;;;;;;;6.32;5.13;;;9.60;99.90;;;;;;5023313;28;20216;-83
2021/11/08 13:56:58;;;;;;;5.18;4.68;;;9.60;99.90;;;;;;5005804;28;20238;-84
2021/11/08 13:59:29;;;;;;;9.15;5.70;;;9.60;99.90;;;;;;5023271;28;20210;-86
2021/11/08 14:02:01;;;;;;;7.60;5.90;;;9.70;99.90;;;;;;5024274;28;20254;-83
2021/11/08 14:04:34;;;;;;;8.77;5.22;;;9.80;99.90;;;;;;5021089;28;20232;-86
2021/11/08 14:07:04;;;;;;;8.27;5.07;;;9.70;99.90;;;;;;5023080;28;20206;-85
2021/11/08 14:09:32;;;;;;;5.25;4.75;;;9.60;99.90;;;;;;5023102;28;20241;-83
2021/11/08 14:12:07;;;;;;;7.55;5.88;;;9.60;99.90;;;;;;5023193;28;20202;-82
2021/11/08 14:14:39;;;;;;;7.22;5.72;;;9.50;99.90;;;;;;5023417;28;20209;-85
2021/11/08 14:17:20;;;;;;;10.63;6.20;;;9.70;99.90;;;;;;5006090;28;20275;-81
2021/11/08 14:19:52;;;;;;;6.28;4.95;;;9.70;99.90;;;;;;5023231;28;20474;-82
2021/11/08 14:22:28;;;;;;;8.25;6.32;;;9.70;99.90;;;;;;5001136;28;20197;-85
2021/11/08 14:24:57;;;;;;;12.13;7.68;;;9.70;99.90;;;;;;5016949;28;20277;-83
2021/11/08 14:27:27;;;;;;;12.13;8.93;;;9.80;99.90;;;;;;5004961;28;20231;-84
2021/11/08 14:29:55;;;;;;;14.57;11.95;;;9.80;99.90;;;;;;5022299;28;20248;-85
2021/11/08 14:32:26;;;;;;;8.38;7.60;;;9.80;99.90;;;;;;5004512;28;20201;-84
2021/11/08 14:37:48;;;;;;;6.43;5.40;;;9.80;99.90;;;;;;5022971;28;20240;-83
2021/11/08 14:40:23;;;;;;;7.10;5.20;;;9.70;99.90;;;;;;5022647;28;20501;-83
2021/11/08 14:42:51;;;;;;;5.93;5.28;;;9.70;99.90;;;;;;5023061;28;20252;-84
2021/11/08 14:45:27;;;;;;;8.10;6.45;;;9.50;99.90;;;;;;5016015;28;20275;-86
2021/11/08 14:48:01;;;;;;;4.80;4.40;;;9.50;99.90;;;;;;5022738;28;20204;-83
2021/11/08 14:50:31;;;;;;;11.57;5.20;;;9.50;99.90;;;;;;5021667;28;20251;-85
2021/11/08 14:52:59;;;;;;;5.78;5.15;;;9.50;99.90;;;;;;5010041;28;20388;-82
2021/11/08 14:55:33;;;;;;;7.70;4.60;;;9.40;99.90;;;;;;5021946;28;20225;-82
2021/11/08 14:58:12;;;;;;;11.77;6.28;;;9.40;99.90;;;;;;5022054;28;20226;-83